sensor_id;sensor_type;location;lat;lon;timestamp;P1;durP1;ratioP1;P2;durP2;ratioP2
10920;SDS011;5513;50.580;8.818;2022-08-19T00:00:02;24.47;;;19.33;;
10920;SDS011;5513;50.580;8.818;2022-08-19T00:02:35;23.13;;;18.73;;
10920;SDS011;5513;50.580;8.818;2022-08-19T00:05:16;23.60;;;18.50;;
10920;SDS011;5513;50.580;8.818;2022-08-19T00:07:47;24.45;;;18.52;;
10920;SDS011;5513;50.580;8.818;2022-08-19T00:10:19;23.87;;;18.87;;
10920;SDS011;5513;50.580;8.818;2022-08-19T00:12:48;22.53;;;18.27;;
10920;SDS011;5513;50.580;8.818;2022-08-19T00:15:18;23.57;;;18.73;;
10920;SDS011;5513;50.580;8.818;2022-08-19T00:17:53;20.93;;;18.57;;
10920;SDS011;5513;50.580;8.818;2022-08-19T00:20:25;23.70;;;19.47;;
10920;SDS011;5513;50.580;8.818;2022-08-19T00:22:54;25.33;;;18.13;;
10920;SDS011;5513;50.580;8.818;2022-08-19T00:25:22;21.87;;;18.57;;
10920;SDS011;5513;50.580;8.818;2022-08-19T00:27:55;21.50;;;17.30;;
10920;SDS011;5513;50.580;8.818;2022-08-19T00:30:25;24.57;;;18.53;;
10920;SDS011;5513;50.580;8.818;2022-08-19T00:32:56;22.10;;;18.27;;
10920;SDS011;5513;50.580;8.818;2022-08-19T00:35:25;24.40;;;19.07;;
10920;SDS011;5513;50.580;8.818;2022-08-19T00:37:55;22.97;;;18.57;;
10920;SDS011;5513;50.580;8.818;2022-08-19T00:40:24;21.50;;;18.53;;
10920;SDS011;5513;50.580;8.818;2022-08-19T00:42:54;22.37;;;18.43;;
10920;SDS011;5513;50.580;8.818;2022-08-19T00:45:25;23.30;;;18.70;;
10920;SDS011;5513;50.580;8.818;2022-08-19T00:48:01;23.73;;;18.90;;
10920;SDS011;5513;50.580;8.818;2022-08-19T00:50:40;22.30;;;18.23;;
10920;SDS011;5513;50.580;8.818;2022-08-19T00:53:19;19.87;;;17.63;;
10920;SDS011;5513;50.580;8.818;2022-08-19T00:55:51;24.03;;;18.90;;
10920;SDS011;5513;50.580;8.818;2022-08-19T00:58:26;24.10;;;18.87;;
10920;SDS011;5513;50.580;8.818;2022-08-19T01:00:56;24.00;;;18.63;;
10920;SDS011;5513;50.580;8.818;2022-08-19T01:03:27;22.97;;;17.83;;
10920;SDS011;5513;50.580;8.818;2022-08-19T01:06:16;23.00;;;18.37;;
10920;SDS011;5513;50.580;8.818;2022-08-19T01:08:46;21.63;;;18.07;;
10920;SDS011;5513;50.580;8.818;2022-08-19T01:11:15;23.07;;;18.73;;
10920;SDS011;5513;50.580;8.818;2022-08-19T01:13:44;21.23;;;18.50;;
10920;SDS011;5513;50.580;8.818;2022-08-19T01:16:15;22.27;;;18.17;;
10920;SDS011;5513;50.580;8.818;2022-08-19T01:18:47;21.23;;;18.10;;
10920;SDS011;5513;50.580;8.818;2022-08-19T01:21:19;21.47;;;18.27;;
10920;SDS011;5513;50.580;8.818;2022-08-19T01:23:57;21.80;;;17.13;;
10920;SDS011;5513;50.580;8.818;2022-08-19T01:26:26;19.77;;;17.27;;
10920;SDS011;5513;50.580;8.818;2022-08-19T01:28:57;19.93;;;16.93;;
10920;SDS011;5513;50.580;8.818;2022-08-19T01:31:31;19.17;;;16.57;;
10920;SDS011;5513;50.580;8.818;2022-08-19T01:34:00;18.97;;;16.17;;
10920;SDS011;5513;50.580;8.818;2022-08-19T01:36:30;21.43;;;15.90;;
10920;SDS011;5513;50.580;8.818;2022-08-19T01:39:05;20.97;;;16.53;;
10920;SDS011;5513;50.580;8.818;2022-08-19T01:41:45;20.07;;;15.83;;
10920;SDS011;5513;50.580;8.818;2022-08-19T01:44:14;19.67;;;16.27;;
10920;SDS011;5513;50.580;8.818;2022-08-19T01:46:45;20.37;;;16.63;;
10920;SDS011;5513;50.580;8.818;2022-08-19T01:49:15;19.90;;;15.80;;
10920;SDS011;5513;50.580;8.818;2022-08-19T01:51:46;18.47;;;15.63;;
10920;SDS011;5513;50.580;8.818;2022-08-19T01:54:17;19.73;;;16.07;;
10920;SDS011;5513;50.580;8.818;2022-08-19T01:56:53;19.53;;;16.33;;
10920;SDS011;5513;50.580;8.818;2022-08-19T01:59:25;18.93;;;15.50;;
10920;SDS011;5513;50.580;8.818;2022-08-19T02:01:55;18.17;;;15.70;;
10920;SDS011;5513;50.580;8.818;2022-08-19T02:04:24;19.80;;;15.97;;
10920;SDS011;5513;50.580;8.818;2022-08-19T02:06:53;17.50;;;15.53;;
10920;SDS011;5513;50.580;8.818;2022-08-19T02:09:24;19.77;;;16.33;;
10920;SDS011;5513;50.580;8.818;2022-08-19T02:11:52;16.90;;;15.10;;
10920;SDS011;5513;50.580;8.818;2022-08-19T02:14:21;17.63;;;14.70;;
10920;SDS011;5513;50.580;8.818;2022-08-19T02:16:50;20.23;;;15.20;;
10920;SDS011;5513;50.580;8.818;2022-08-19T02:19:18;18.57;;;16.27;;
10920;SDS011;5513;50.580;8.818;2022-08-19T02:21:46;19.57;;;16.93;;
10920;SDS011;5513;50.580;8.818;2022-08-19T02:24:15;25.67;;;20.67;;
10920;SDS011;5513;50.580;8.818;2022-08-19T02:26:45;22.90;;;18.90;;
10920;SDS011;5513;50.580;8.818;2022-08-19T02:29:14;16.93;;;13.47;;
10920;SDS011;5513;50.580;8.818;2022-08-19T02:31:42;19.77;;;14.23;;
10920;SDS011;5513;50.580;8.818;2022-08-19T02:34:10;18.17;;;14.60;;
10920;SDS011;5513;50.580;8.818;2022-08-19T02:36:40;15.57;;;12.97;;
10920;SDS011;5513;50.580;8.818;2022-08-19T02:39:08;15.13;;;12.47;;
10920;SDS011;5513;50.580;8.818;2022-08-19T02:41:36;16.17;;;14.47;;
10920;SDS011;5513;50.580;8.818;2022-08-19T02:44:06;14.23;;;11.97;;
10920;SDS011;5513;50.580;8.818;2022-08-19T02:46:55;15.27;;;11.80;;
10920;SDS011;5513;50.580;8.818;2022-08-19T02:49:24;14.83;;;11.97;;
10920;SDS011;5513;50.580;8.818;2022-08-19T02:51:52;13.67;;;12.17;;
10920;SDS011;5513;50.580;8.818;2022-08-19T02:54:21;15.90;;;13.70;;
10920;SDS011;5513;50.580;8.818;2022-08-19T02:56:50;14.10;;;12.63;;
10920;SDS011;5513;50.580;8.818;2022-08-19T02:59:19;14.57;;;13.07;;
10920;SDS011;5513;50.580;8.818;2022-08-19T03:01:48;15.67;;;13.27;;
10920;SDS011;5513;50.580;8.818;2022-08-19T03:04:18;17.83;;;13.30;;
10920;SDS011;5513;50.580;8.818;2022-08-19T03:06:47;13.97;;;12.47;;
10920;SDS011;5513;50.580;8.818;2022-08-19T03:09:16;16.07;;;12.23;;
10920;SDS011;5513;50.580;8.818;2022-08-19T03:11:46;13.33;;;11.57;;
10920;SDS011;5513;50.580;8.818;2022-08-19T03:14:19;13.40;;;11.60;;
10920;SDS011;5513;50.580;8.818;2022-08-19T03:16:50;14.33;;;12.73;;
10920;SDS011;5513;50.580;8.818;2022-08-19T03:19:19;15.20;;;12.33;;
10920;SDS011;5513;50.580;8.818;2022-08-19T03:21:49;14.03;;;11.63;;
10920;SDS011;5513;50.580;8.818;2022-08-19T03:24:20;14.60;;;12.40;;
10920;SDS011;5513;50.580;8.818;2022-08-19T03:26:49;13.57;;;12.17;;
10920;SDS011;5513;50.580;8.818;2022-08-19T03:29:21;13.07;;;11.07;;
10920;SDS011;5513;50.580;8.818;2022-08-19T03:31:56;13.93;;;12.27;;
10920;SDS011;5513;50.580;8.818;2022-08-19T03:34:30;16.97;;;12.33;;
10920;SDS011;5513;50.580;8.818;2022-08-19T03:37:03;13.07;;;11.77;;
10920;SDS011;5513;50.580;8.818;2022-08-19T03:39:33;13.30;;;11.90;;
10920;SDS011;5513;50.580;8.818;2022-08-19T03:42:05;13.53;;;12.13;;
10920;SDS011;5513;50.580;8.818;2022-08-19T03:44:55;15.27;;;12.03;;
10920;SDS011;5513;50.580;8.818;2022-08-19T03:47:24;16.37;;;12.17;;
10920;SDS011;5513;50.580;8.818;2022-08-19T03:49:53;17.33;;;12.37;;
10920;SDS011;5513;50.580;8.818;2022-08-19T03:52:24;17.17;;;12.50;;
10920;SDS011;5513;50.580;8.818;2022-08-19T03:54:53;15.23;;;11.53;;
10920;SDS011;5513;50.580;8.818;2022-08-19T03:57:21;13.43;;;11.90;;
10920;SDS011;5513;50.580;8.818;2022-08-19T03:59:59;15.67;;;12.47;;
10920;SDS011;5513;50.580;8.818;2022-08-19T04:02:39;13.60;;;12.00;;
10920;SDS011;5513;50.580;8.818;2022-08-19T04:05:26;15.60;;;11.70;;
10920;SDS011;5513;50.580;8.818;2022-08-19T04:07:56;13.60;;;11.70;;
10920;SDS011;5513;50.580;8.818;2022-08-19T04:10:25;13.07;;;11.40;;
10920;SDS011;5513;50.580;8.818;2022-08-19T04:12:55;14.63;;;12.53;;
10920;SDS011;5513;50.580;8.818;2022-08-19T04:15:25;15.50;;;12.70;;
10920;SDS011;5513;50.580;8.818;2022-08-19T04:17:55;14.03;;;11.60;;
10920;SDS011;5513;50.580;8.818;2022-08-19T04:20:23;15.40;;;12.17;;
10920;SDS011;5513;50.580;8.818;2022-08-19T04:22:52;15.97;;;11.67;;
10920;SDS011;5513;50.580;8.818;2022-08-19T04:25:21;15.40;;;11.50;;
10920;SDS011;5513;50.580;8.818;2022-08-19T04:27:50;13.83;;;11.77;;
10920;SDS011;5513;50.580;8.818;2022-08-19T04:30:19;14.57;;;12.57;;
10920;SDS011;5513;50.580;8.818;2022-08-19T04:32:50;17.90;;;12.97;;
10920;SDS011;5513;50.580;8.818;2022-08-19T04:35:19;13.57;;;11.77;;
10920;SDS011;5513;50.580;8.818;2022-08-19T04:37:50;13.90;;;12.03;;
10920;SDS011;5513;50.580;8.818;2022-08-19T04:40:18;13.47;;;11.57;;
10920;SDS011;5513;50.580;8.818;2022-08-19T04:43:04;14.03;;;10.90;;
10920;SDS011;5513;50.580;8.818;2022-08-19T04:45:32;14.30;;;11.07;;
10920;SDS011;5513;50.580;8.818;2022-08-19T04:48:10;16.53;;;12.17;;
10920;SDS011;5513;50.580;8.818;2022-08-19T04:50:53;14.60;;;11.40;;
10920;SDS011;5513;50.580;8.818;2022-08-19T04:53:27;15.13;;;11.63;;
10920;SDS011;5513;50.580;8.818;2022-08-19T04:56:04;14.83;;;11.30;;
10920;SDS011;5513;50.580;8.818;2022-08-19T04:58:34;17.10;;;12.30;;
10920;SDS011;5513;50.580;8.818;2022-08-19T05:01:04;14.73;;;12.03;;
10920;SDS011;5513;50.580;8.818;2022-08-19T05:03:38;12.67;;;11.37;;
10920;SDS011;5513;50.580;8.818;2022-08-19T05:06:07;14.27;;;11.97;;
10920;SDS011;5513;50.580;8.818;2022-08-19T05:08:38;14.13;;;11.43;;
10920;SDS011;5513;50.580;8.818;2022-08-19T05:11:12;14.00;;;12.57;;
10920;SDS011;5513;50.580;8.818;2022-08-19T05:13:42;13.63;;;11.67;;
10920;SDS011;5513;50.580;8.818;2022-08-19T05:16:12;15.80;;;12.20;;
10920;SDS011;5513;50.580;8.818;2022-08-19T05:18:43;13.90;;;12.17;;
10920;SDS011;5513;50.580;8.818;2022-08-19T05:21:30;16.03;;;11.97;;
10920;SDS011;5513;50.580;8.818;2022-08-19T05:24:19;14.03;;;12.17;;
10920;SDS011;5513;50.580;8.818;2022-08-19T05:26:50;16.23;;;12.17;;
10920;SDS011;5513;50.580;8.818;2022-08-19T05:29:25;18.80;;;12.23;;
10920;SDS011;5513;50.580;8.818;2022-08-19T05:32:03;14.17;;;11.73;;
10920;SDS011;5513;50.580;8.818;2022-08-19T05:34:38;14.37;;;12.13;;
10920;SDS011;5513;50.580;8.818;2022-08-19T05:37:07;15.50;;;12.50;;
10920;SDS011;5513;50.580;8.818;2022-08-19T05:39:38;15.03;;;12.30;;
10920;SDS011;5513;50.580;8.818;2022-08-19T05:42:07;14.47;;;12.23;;
10920;SDS011;5513;50.580;8.818;2022-08-19T05:44:39;14.00;;;12.07;;
10920;SDS011;5513;50.580;8.818;2022-08-19T05:47:10;15.50;;;11.97;;
10920;SDS011;5513;50.580;8.818;2022-08-19T05:49:43;13.90;;;11.77;;
10920;SDS011;5513;50.580;8.818;2022-08-19T05:52:13;15.03;;;12.23;;
10920;SDS011;5513;50.580;8.818;2022-08-19T05:54:44;15.37;;;12.07;;
10920;SDS011;5513;50.580;8.818;2022-08-19T05:57:19;13.50;;;11.27;;
10920;SDS011;5513;50.580;8.818;2022-08-19T05:59:50;14.47;;;10.70;;
10920;SDS011;5513;50.580;8.818;2022-08-19T06:02:24;17.70;;;11.63;;
10920;SDS011;5513;50.580;8.818;2022-08-19T06:04:57;13.20;;;10.90;;
10920;SDS011;5513;50.580;8.818;2022-08-19T06:07:26;12.27;;;10.87;;
10920;SDS011;5513;50.580;8.818;2022-08-19T06:09:55;13.37;;;11.07;;
10920;SDS011;5513;50.580;8.818;2022-08-19T06:12:26;12.40;;;10.80;;
10920;SDS011;5513;50.580;8.818;2022-08-19T06:14:58;13.13;;;10.33;;
10920;SDS011;5513;50.580;8.818;2022-08-19T06:17:27;12.30;;;10.33;;
10920;SDS011;5513;50.580;8.818;2022-08-19T06:19:59;12.83;;;10.87;;
10920;SDS011;5513;50.580;8.818;2022-08-19T06:22:28;12.00;;;10.30;;
10920;SDS011;5513;50.580;8.818;2022-08-19T06:24:56;12.67;;;10.30;;
10920;SDS011;5513;50.580;8.818;2022-08-19T06:27:25;11.30;;;10.20;;
10920;SDS011;5513;50.580;8.818;2022-08-19T06:29:56;12.83;;;9.70;;
10920;SDS011;5513;50.580;8.818;2022-08-19T06:32:24;14.57;;;10.03;;
10920;SDS011;5513;50.580;8.818;2022-08-19T06:34:52;12.13;;;9.50;;
10920;SDS011;5513;50.580;8.818;2022-08-19T06:37:22;12.37;;;10.33;;
10920;SDS011;5513;50.580;8.818;2022-08-19T06:39:51;13.00;;;9.90;;
10920;SDS011;5513;50.580;8.818;2022-08-19T06:42:20;12.00;;;10.57;;
10920;SDS011;5513;50.580;8.818;2022-08-19T06:44:49;14.77;;;10.00;;
10920;SDS011;5513;50.580;8.818;2022-08-19T06:47:19;12.67;;;9.27;;
10920;SDS011;5513;50.580;8.818;2022-08-19T06:49:53;12.93;;;10.27;;
10920;SDS011;5513;50.580;8.818;2022-08-19T06:52:33;12.00;;;9.47;;
10920;SDS011;5513;50.580;8.818;2022-08-19T06:55:04;10.43;;;9.03;;
10920;SDS011;5513;50.580;8.818;2022-08-19T06:57:33;10.03;;;8.83;;
10920;SDS011;5513;50.580;8.818;2022-08-19T07:00:02;10.70;;;8.20;;
10920;SDS011;5513;50.580;8.818;2022-08-19T07:02:40;9.00;;;8.10;;
10920;SDS011;5513;50.580;8.818;2022-08-19T07:05:21;10.70;;;8.17;;
10920;SDS011;5513;50.580;8.818;2022-08-19T07:07:51;9.00;;;7.80;;
10920;SDS011;5513;50.580;8.818;2022-08-19T07:10:23;9.77;;;8.03;;
10920;SDS011;5513;50.580;8.818;2022-08-19T07:12:51;9.73;;;7.97;;
10920;SDS011;5513;50.580;8.818;2022-08-19T07:15:20;11.87;;;8.33;;
10920;SDS011;5513;50.580;8.818;2022-08-19T07:17:49;9.93;;;7.63;;
10920;SDS011;5513;50.580;8.818;2022-08-19T07:20:18;12.47;;;8.20;;
10920;SDS011;5513;50.580;8.818;2022-08-19T07:22:55;8.43;;;7.40;;
10920;SDS011;5513;50.580;8.818;2022-08-19T07:25:24;9.40;;;7.60;;
10920;SDS011;5513;50.580;8.818;2022-08-19T07:27:57;10.63;;;7.50;;
10920;SDS011;5513;50.580;8.818;2022-08-19T07:30:27;7.90;;;6.13;;
10920;SDS011;5513;50.580;8.818;2022-08-19T07:32:56;10.32;;;6.05;;
10920;SDS011;5513;50.580;8.818;2022-08-19T07:35:28;8.83;;;6.13;;
10920;SDS011;5513;50.580;8.818;2022-08-19T07:38:00;9.53;;;5.90;;
10920;SDS011;5513;50.580;8.818;2022-08-19T07:40:30;8.50;;;6.17;;
10920;SDS011;5513;50.580;8.818;2022-08-19T07:42:59;10.77;;;6.33;;
10920;SDS011;5513;50.580;8.818;2022-08-19T07:45:30;7.10;;;5.87;;
10920;SDS011;5513;50.580;8.818;2022-08-19T07:47:59;8.60;;;5.30;;
10920;SDS011;5513;50.580;8.818;2022-08-19T07:50:28;9.47;;;5.03;;
10920;SDS011;5513;50.580;8.818;2022-08-19T07:52:56;8.77;;;4.53;;
10920;SDS011;5513;50.580;8.818;2022-08-19T07:55:26;7.55;;;4.75;;
10920;SDS011;5513;50.580;8.818;2022-08-19T07:58:09;6.68;;;4.80;;
10920;SDS011;5513;50.580;8.818;2022-08-19T08:00:40;6.10;;;4.43;;
10920;SDS011;5513;50.580;8.818;2022-08-19T08:03:09;7.93;;;5.18;;
10920;SDS011;5513;50.580;8.818;2022-08-19T08:05:39;7.97;;;5.15;;
10920;SDS011;5513;50.580;8.818;2022-08-19T08:08:25;6.15;;;5.47;;
10920;SDS011;5513;50.580;8.818;2022-08-19T08:11:15;6.72;;;5.07;;
10920;SDS011;5513;50.580;8.818;2022-08-19T08:13:46;7.03;;;4.75;;
10920;SDS011;5513;50.580;8.818;2022-08-19T08:16:29;5.78;;;4.60;;
10920;SDS011;5513;50.580;8.818;2022-08-19T08:19:00;7.38;;;5.10;;
10920;SDS011;5513;50.580;8.818;2022-08-19T08:21:32;7.43;;;5.00;;
10920;SDS011;5513;50.580;8.818;2022-08-19T08:24:01;6.63;;;4.95;;
10920;SDS011;5513;50.580;8.818;2022-08-19T08:26:32;6.32;;;4.82;;
10920;SDS011;5513;50.580;8.818;2022-08-19T08:29:02;5.75;;;4.90;;
10920;SDS011;5513;50.580;8.818;2022-08-19T08:31:39;5.35;;;4.50;;
10920;SDS011;5513;50.580;8.818;2022-08-19T08:34:08;7.05;;;4.53;;
10920;SDS011;5513;50.580;8.818;2022-08-19T08:36:40;5.03;;;4.40;;
10920;SDS011;5513;50.580;8.818;2022-08-19T08:39:11;6.68;;;4.40;;
10920;SDS011;5513;50.580;8.818;2022-08-19T08:41:46;4.10;;;3.70;;
10920;SDS011;5513;50.580;8.818;2022-08-19T08:44:21;6.20;;;3.67;;
10920;SDS011;5513;50.580;8.818;2022-08-19T08:46:53;4.30;;;3.53;;
10920;SDS011;5513;50.580;8.818;2022-08-19T08:49:27;4.30;;;3.90;;
10920;SDS011;5513;50.580;8.818;2022-08-19T08:52:10;5.13;;;3.60;;
10920;SDS011;5513;50.580;8.818;2022-08-19T08:54:43;7.28;;;4.15;;
10920;SDS011;5513;50.580;8.818;2022-08-19T08:57:23;6.35;;;3.70;;
10920;SDS011;5513;50.580;8.818;2022-08-19T09:00:08;4.32;;;3.92;;
10920;SDS011;5513;50.580;8.818;2022-08-19T09:02:41;5.68;;;3.70;;
10920;SDS011;5513;50.580;8.818;2022-08-19T09:05:09;4.15;;;3.70;;
10920;SDS011;5513;50.580;8.818;2022-08-19T09:07:43;4.10;;;3.72;;
10920;SDS011;5513;50.580;8.818;2022-08-19T09:10:26;10.40;;;4.10;;
10920;SDS011;5513;50.580;8.818;2022-08-19T09:13:01;6.03;;;3.80;;
10920;SDS011;5513;50.580;8.818;2022-08-19T09:15:40;6.65;;;3.72;;
10920;SDS011;5513;50.580;8.818;2022-08-19T09:18:15;5.30;;;3.47;;
10920;SDS011;5513;50.580;8.818;2022-08-19T09:20:50;4.63;;;3.83;;
10920;SDS011;5513;50.580;8.818;2022-08-19T09:23:22;5.75;;;3.15;;
10920;SDS011;5513;50.580;8.818;2022-08-19T09:25:52;4.90;;;3.53;;
10920;SDS011;5513;50.580;8.818;2022-08-19T09:28:22;3.88;;;3.42;;
10920;SDS011;5513;50.580;8.818;2022-08-19T09:30:52;3.20;;;3.00;;
10920;SDS011;5513;50.580;8.818;2022-08-19T09:33:22;7.82;;;3.63;;
10920;SDS011;5513;50.580;8.818;2022-08-19T09:36:01;4.60;;;3.22;;
10920;SDS011;5513;50.580;8.818;2022-08-19T09:38:34;7.28;;;3.53;;
10920;SDS011;5513;50.580;8.818;2022-08-19T09:41:09;4.68;;;3.45;;
10920;SDS011;5513;50.580;8.818;2022-08-19T09:43:44;3.20;;;2.65;;
10920;SDS011;5513;50.580;8.818;2022-08-19T09:46:14;3.33;;;2.83;;
10920;SDS011;5513;50.580;8.818;2022-08-19T09:48:49;5.72;;;3.20;;
10920;SDS011;5513;50.580;8.818;2022-08-19T09:51:19;3.85;;;3.03;;
10920;SDS011;5513;50.580;8.818;2022-08-19T09:53:49;3.72;;;2.60;;
10920;SDS011;5513;50.580;8.818;2022-08-19T09:56:21;5.22;;;2.90;;
10920;SDS011;5513;50.580;8.818;2022-08-19T09:58:51;3.53;;;2.80;;
10920;SDS011;5513;50.580;8.818;2022-08-19T10:01:21;4.03;;;2.70;;
10920;SDS011;5513;50.580;8.818;2022-08-19T10:03:53;4.07;;;2.72;;
10920;SDS011;5513;50.580;8.818;2022-08-19T10:06:23;3.70;;;2.75;;
10920;SDS011;5513;50.580;8.818;2022-08-19T10:09:12;3.60;;;2.60;;
10920;SDS011;5513;50.580;8.818;2022-08-19T10:11:42;2.80;;;2.22;;
10920;SDS011;5513;50.580;8.818;2022-08-19T10:14:21;3.28;;;2.60;;
10920;SDS011;5513;50.580;8.818;2022-08-19T10:16:50;3.13;;;2.42;;
10920;SDS011;5513;50.580;8.818;2022-08-19T10:19:18;3.97;;;2.10;;
10920;SDS011;5513;50.580;8.818;2022-08-19T10:21:51;2.38;;;2.13;;
10920;SDS011;5513;50.580;8.818;2022-08-19T10:24:25;2.58;;;2.17;;
10920;SDS011;5513;50.580;8.818;2022-08-19T10:26:54;2.78;;;2.35;;
10920;SDS011;5513;50.580;8.818;2022-08-19T10:29:27;3.45;;;2.45;;
10920;SDS011;5513;50.580;8.818;2022-08-19T10:31:58;2.75;;;2.50;;
10920;SDS011;5513;50.580;8.818;2022-08-19T10:34:29;2.92;;;2.60;;
10920;SDS011;5513;50.580;8.818;2022-08-19T10:36:58;2.85;;;2.60;;
10920;SDS011;5513;50.580;8.818;2022-08-19T10:39:28;2.42;;;2.13;;
10920;SDS011;5513;50.580;8.818;2022-08-19T10:42:09;3.55;;;2.67;;
10920;SDS011;5513;50.580;8.818;2022-08-19T10:44:41;4.03;;;2.75;;
10920;SDS011;5513;50.580;8.818;2022-08-19T10:47:13;3.17;;;2.60;;
10920;SDS011;5513;50.580;8.818;2022-08-19T10:49:50;2.78;;;2.55;;
10920;SDS011;5513;50.580;8.818;2022-08-19T10:52:37;4.40;;;2.60;;
10920;SDS011;5513;50.580;8.818;2022-08-19T10:55:15;5.25;;;2.65;;
10920;SDS011;5513;50.580;8.818;2022-08-19T10:58:08;2.95;;;2.60;;
10920;SDS011;5513;50.580;8.818;2022-08-19T11:00:40;3.53;;;2.97;;
10920;SDS011;5513;50.580;8.818;2022-08-19T11:03:09;2.97;;;2.65;;
10920;SDS011;5513;50.580;8.818;2022-08-19T11:05:37;3.53;;;2.55;;
10920;SDS011;5513;50.580;8.818;2022-08-19T11:08:07;4.35;;;2.75;;
10920;SDS011;5513;50.580;8.818;2022-08-19T11:10:48;2.72;;;2.50;;
10920;SDS011;5513;50.580;8.818;2022-08-19T11:13:17;3.35;;;2.63;;
10920;SDS011;5513;50.580;8.818;2022-08-19T11:15:47;4.07;;;3.17;;
10920;SDS011;5513;50.580;8.818;2022-08-19T11:18:24;9.18;;;3.97;;
10920;SDS011;5513;50.580;8.818;2022-08-19T11:21:04;3.40;;;3.10;;
10920;SDS011;5513;50.580;8.818;2022-08-19T11:23:33;4.03;;;3.28;;
10920;SDS011;5513;50.580;8.818;2022-08-19T11:26:01;3.92;;;3.15;;
10920;SDS011;5513;50.580;8.818;2022-08-19T11:28:30;4.05;;;3.08;;
10920;SDS011;5513;50.580;8.818;2022-08-19T11:31:02;3.78;;;2.90;;
10920;SDS011;5513;50.580;8.818;2022-08-19T11:33:31;3.42;;;2.92;;
10920;SDS011;5513;50.580;8.818;2022-08-19T11:36:00;5.43;;;3.22;;
10920;SDS011;5513;50.580;8.818;2022-08-19T11:38:30;5.35;;;3.40;;
10920;SDS011;5513;50.580;8.818;2022-08-19T11:40:58;5.18;;;3.80;;
10920;SDS011;5513;50.580;8.818;2022-08-19T11:43:29;5.68;;;4.57;;
10920;SDS011;5513;50.580;8.818;2022-08-19T11:46:05;4.22;;;3.42;;
10920;SDS011;5513;50.580;8.818;2022-08-19T11:48:36;5.18;;;4.22;;
10920;SDS011;5513;50.580;8.818;2022-08-19T11:51:06;4.40;;;4.00;;
10920;SDS011;5513;50.580;8.818;2022-08-19T11:53:38;4.38;;;4.00;;
10920;SDS011;5513;50.580;8.818;2022-08-19T11:56:08;4.57;;;4.20;;
10920;SDS011;5513;50.580;8.818;2022-08-19T11:58:38;4.90;;;4.40;;
10920;SDS011;5513;50.580;8.818;2022-08-19T12:01:12;4.53;;;4.13;;
10920;SDS011;5513;50.580;8.818;2022-08-19T12:03:42;5.00;;;4.60;;
10920;SDS011;5513;50.580;8.818;2022-08-19T12:06:13;4.35;;;3.95;;
10920;SDS011;5513;50.580;8.818;2022-08-19T12:08:43;4.82;;;4.30;;
10920;SDS011;5513;50.580;8.818;2022-08-19T12:11:14;5.07;;;4.43;;
10920;SDS011;5513;50.580;8.818;2022-08-19T12:13:43;4.90;;;4.50;;
10920;SDS011;5513;50.580;8.818;2022-08-19T12:16:15;4.82;;;3.88;;
10920;SDS011;5513;50.580;8.818;2022-08-19T12:18:46;5.85;;;4.35;;
10920;SDS011;5513;50.580;8.818;2022-08-19T12:21:15;4.55;;;4.25;;
10920;SDS011;5513;50.580;8.818;2022-08-19T12:23:46;5.35;;;4.85;;
10920;SDS011;5513;50.580;8.818;2022-08-19T12:26:21;4.72;;;4.38;;
10920;SDS011;5513;50.580;8.818;2022-08-19T12:28:51;6.20;;;4.43;;
10920;SDS011;5513;50.580;8.818;2022-08-19T12:31:22;4.78;;;4.38;;
10920;SDS011;5513;50.580;8.818;2022-08-19T12:33:50;5.15;;;4.70;;
10920;SDS011;5513;50.580;8.818;2022-08-19T12:36:20;5.70;;;4.43;;
10920;SDS011;5513;50.580;8.818;2022-08-19T12:38:49;5.75;;;4.28;;
10920;SDS011;5513;50.580;8.818;2022-08-19T12:41:23;4.30;;;3.72;;
10920;SDS011;5513;50.580;8.818;2022-08-19T12:43:53;12.57;;;5.10;;
10920;SDS011;5513;50.580;8.818;2022-08-19T12:46:23;5.30;;;4.38;;
10920;SDS011;5513;50.580;8.818;2022-08-19T12:48:53;4.70;;;4.30;;
10920;SDS011;5513;50.580;8.818;2022-08-19T12:51:22;5.15;;;4.25;;
10920;SDS011;5513;50.580;8.818;2022-08-19T12:53:52;4.47;;;4.07;;
10920;SDS011;5513;50.580;8.818;2022-08-19T12:56:20;4.72;;;4.30;;
10920;SDS011;5513;50.580;8.818;2022-08-19T12:58:49;5.05;;;4.57;;
10920;SDS011;5513;50.580;8.818;2022-08-19T13:01:18;5.18;;;4.50;;
10920;SDS011;5513;50.580;8.818;2022-08-19T13:03:50;4.82;;;4.40;;
10920;SDS011;5513;50.580;8.818;2022-08-19T13:06:20;5.32;;;4.30;;
10920;SDS011;5513;50.580;8.818;2022-08-19T13:08:49;4.93;;;3.97;;
10920;SDS011;5513;50.580;8.818;2022-08-19T13:11:25;5.70;;;4.22;;
10920;SDS011;5513;50.580;8.818;2022-08-19T13:13:53;7.68;;;4.50;;
10920;SDS011;5513;50.580;8.818;2022-08-19T13:16:22;5.45;;;4.03;;
10920;SDS011;5513;50.580;8.818;2022-08-19T13:18:55;4.97;;;4.32;;
10920;SDS011;5513;50.580;8.818;2022-08-19T13:21:25;4.82;;;4.53;;
10920;SDS011;5513;50.580;8.818;2022-08-19T13:23:56;5.38;;;4.65;;
10920;SDS011;5513;50.580;8.818;2022-08-19T13:26:26;6.15;;;5.47;;
10920;SDS011;5513;50.580;8.818;2022-08-19T13:28:56;6.32;;;4.85;;
10920;SDS011;5513;50.580;8.818;2022-08-19T13:31:41;5.20;;;4.70;;
10920;SDS011;5513;50.580;8.818;2022-08-19T13:34:31;5.57;;;5.07;;
10920;SDS011;5513;50.580;8.818;2022-08-19T13:37:01;7.75;;;5.80;;
10920;SDS011;5513;50.580;8.818;2022-08-19T13:39:31;6.10;;;4.95;;
10920;SDS011;5513;50.580;8.818;2022-08-19T13:42:00;4.65;;;4.25;;
10920;SDS011;5513;50.580;8.818;2022-08-19T13:44:31;5.10;;;4.70;;
10920;SDS011;5513;50.580;8.818;2022-08-19T13:47:00;6.03;;;5.07;;
10920;SDS011;5513;50.580;8.818;2022-08-19T13:49:35;6.65;;;6.15;;
10920;SDS011;5513;50.580;8.818;2022-08-19T13:52:04;6.53;;;5.45;;
10920;SDS011;5513;50.580;8.818;2022-08-19T13:54:33;5.07;;;4.60;;
10920;SDS011;5513;50.580;8.818;2022-08-19T13:57:01;5.20;;;4.80;;
10920;SDS011;5513;50.580;8.818;2022-08-19T13:59:30;6.50;;;5.88;;
10920;SDS011;5513;50.580;8.818;2022-08-19T14:01:59;7.70;;;6.25;;
10920;SDS011;5513;50.580;8.818;2022-08-19T14:04:31;6.75;;;6.15;;
10920;SDS011;5513;50.580;8.818;2022-08-19T14:07:02;7.50;;;6.43;;
10920;SDS011;5513;50.580;8.818;2022-08-19T14:09:31;6.78;;;6.07;;
10920;SDS011;5513;50.580;8.818;2022-08-19T14:11:59;6.82;;;6.22;;
10920;SDS011;5513;50.580;8.818;2022-08-19T14:14:28;6.50;;;5.90;;
10920;SDS011;5513;50.580;8.818;2022-08-19T14:16:56;5.55;;;5.05;;
10920;SDS011;5513;50.580;8.818;2022-08-19T14:19:25;5.75;;;5.18;;
10920;SDS011;5513;50.580;8.818;2022-08-19T14:21:55;5.82;;;5.22;;
10920;SDS011;5513;50.580;8.818;2022-08-19T14:24:26;5.85;;;5.35;;
10920;SDS011;5513;50.580;8.818;2022-08-19T14:26:54;5.78;;;5.28;;
10920;SDS011;5513;50.580;8.818;2022-08-19T14:29:26;7.22;;;5.45;;
10920;SDS011;5513;50.580;8.818;2022-08-19T14:31:55;5.82;;;5.30;;
10920;SDS011;5513;50.580;8.818;2022-08-19T14:34:25;5.72;;;5.22;;
10920;SDS011;5513;50.580;8.818;2022-08-19T14:36:54;5.38;;;4.95;;
10920;SDS011;5513;50.580;8.818;2022-08-19T14:39:22;5.60;;;4.78;;
10920;SDS011;5513;50.580;8.818;2022-08-19T14:41:57;5.15;;;4.68;;
10920;SDS011;5513;50.580;8.818;2022-08-19T14:44:26;5.00;;;4.60;;
10920;SDS011;5513;50.580;8.818;2022-08-19T14:46:54;5.70;;;4.53;;
10920;SDS011;5513;50.580;8.818;2022-08-19T14:49:24;4.88;;;4.15;;
10920;SDS011;5513;50.580;8.818;2022-08-19T14:52:00;5.13;;;4.63;;
10920;SDS011;5513;50.580;8.818;2022-08-19T14:54:29;5.05;;;4.65;;
10920;SDS011;5513;50.580;8.818;2022-08-19T14:57:02;5.38;;;4.88;;
10920;SDS011;5513;50.580;8.818;2022-08-19T14:59:30;5.95;;;5.13;;
10920;SDS011;5513;50.580;8.818;2022-08-19T15:02:00;5.25;;;4.85;;
10920;SDS011;5513;50.580;8.818;2022-08-19T15:04:49;6.03;;;5.53;;
10920;SDS011;5513;50.580;8.818;2022-08-19T15:07:23;6.07;;;5.40;;
10920;SDS011;5513;50.580;8.818;2022-08-19T15:10:00;4.97;;;4.47;;
10920;SDS011;5513;50.580;8.818;2022-08-19T15:12:31;4.97;;;4.57;;
10920;SDS011;5513;50.580;8.818;2022-08-19T15:15:00;5.82;;;5.05;;